Time;durP1;ratioP1;P1;durP2;ratioP2;P2;SDS_P1;SDS_P2;PMS_P1;PMS_P2;Temp;Humidity;BMP_temperature;BMP_pressure;BME280_temperature;BME280_humidity;BME280_pressure;Samples;Min_cycle;Max_cycle;Signal;HPM_P1;HPM_P2
2022/01/19 00:01:18;;;;;;;16.87;9.13;;;3.80;99.90;;;;;;5098946;28;20404;-63
2022/01/19 00:03:44;;;;;;;17.33;8.60;;;3.80;99.90;;;;;;5098418;28;20467;-63
2022/01/19 00:06:10;;;;;;;15.93;8.77;;;3.70;99.90;;;;;;5098583;28;20413;-62
2022/01/19 00:08:36;;;;;;;16.73;10.63;;;3.60;99.90;;;;;;5097674;28;20781;-62
2022/01/19 00:11:02;;;;;;;18.17;10.43;;;3.50;99.90;;;;;;5100238;28;20450;-63
2022/01/19 00:13:28;;;;;;;20.52;10.45;;;3.40;99.90;;;;;;5100233;28;20457;-62
2022/01/19 00:15:54;;;;;;;18.92;10.18;;;3.30;99.90;;;;;;5094931;28;20529;-62
2022/01/19 00:18:22;;;;;;;18.55;10.15;;;3.40;99.90;;;;;;5085803;28;20465;-62
2022/01/19 00:20:48;;;;;;;18.30;9.27;;;3.20;99.90;;;;;;5086369;28;20398;-62
2022/01/19 00:23:16;;;;;;;16.73;9.40;;;3.00;99.90;;;;;;5067605;28;20487;-62
2022/01/19 00:25:43;;;;;;;15.57;8.52;;;3.10;99.90;;;;;;5068445;28;20426;-63
2022/01/19 00:28:09;;;;;;;20.92;9.90;;;2.80;99.90;;;;;;5067625;28;20376;-62
2022/01/19 00:30:35;;;;;;;18.50;9.60;;;2.70;99.90;;;;;;5068584;28;20387;-62
2022/01/19 00:33:02;;;;;;;18.55;9.40;;;4.30;99.90;;;;;;5071708;28;21159;-63
2022/01/19 00:35:27;;;;;;;23.23;9.80;;;2.50;99.90;;;;;;5071997;28;20380;-62
2022/01/19 00:37:53;;;;;;;23.75;10.63;;;2.40;99.90;;;;;;5072272;28;20384;-62
2022/01/19 00:40:19;;;;;;;20.50;10.80;;;2.20;99.90;;;;;;5071335;28;20396;-60
2022/01/19 00:42:46;;;;;;;19.63;11.13;;;2.20;99.90;;;;;;5072222;28;21118;-60
2022/01/19 00:45:13;;;;;;;20.95;10.48;;;2.20;99.90;;;;;;5071278;28;20387;-60
2022/01/19 00:47:39;;;;;;;22.00;10.98;;;2.10;99.90;;;;;;5071533;28;20453;-60
2022/01/19 00:50:06;;;;;;;19.80;10.25;;;2.20;99.90;;;;;;5071274;28;20383;-61
2022/01/19 00:52:32;;;;;;;19.23;10.45;;;2.30;99.90;;;;;;5076167;28;20961;-60
2022/01/19 00:54:58;;;;;;;20.88;11.05;;;2.20;99.90;;;;;;5084996;28;20465;-60
2022/01/19 00:57:23;;;;;;;23.70;11.32;;;2.20;99.90;;;;;;5091404;28;21382;-60
2022/01/19 00:59:51;;;;;;;20.77;10.67;;;2.10;99.90;;;;;;5091914;28;20460;-60
2022/01/19 01:02:16;;;;;;;19.08;10.55;;;2.10;99.90;;;;;;5082394;28;20411;-60
2022/01/19 01:04:42;;;;;;;21.33;11.07;;;2.80;99.90;;;;;;5071668;28;20406;-60
2022/01/19 01:07:07;;;;;;;22.30;11.13;;;2.10;99.90;;;;;;5084563;28;20408;-60
2022/01/19 01:09:33;;;;;;;19.93;10.80;;;3.70;99.90;;;;;;5090618;28;20445;-60
2022/01/19 01:12:10;;;;;;;23.40;11.13;;;2.30;99.90;;;;;;5091566;28;20416;-60
2022/01/19 01:20:08;;;;;;;24.20;11.07;;;3.40;99.90;;;;;;5090986;28;20376;-60
2022/01/19 01:22:34;;;;;;;22.55;11.80;;;2.10;99.90;;;;;;5090328;28;20785;-59
2022/01/19 01:24:59;;;;;;;24.42;12.00;;;2.20;99.90;;;;;;5090574;28;20443;-60
2022/01/19 01:27:25;;;;;;;24.37;11.70;;;1.90;99.90;;;;;;5089494;28;20390;-60
2022/01/19 01:29:51;;;;;;;22.23;11.70;;;3.20;99.90;;;;;;5091726;28;20408;-60
2022/01/19 01:32:17;;;;;;;20.60;10.85;;;2.80;99.90;;;;;;5090689;28;20875;-60
2022/01/19 01:34:42;;;;;;;20.90;10.57;;;2.60;99.90;;;;;;5091446;28;20416;-60
2022/01/19 01:37:08;;;;;;;25.23;12.40;;;2.70;99.90;;;;;;5090577;28;20401;-60
2022/01/19 01:39:34;;;;;;;21.90;11.48;;;1.90;99.90;;;;;;5091326;28;20378;-59
2022/01/19 01:41:59;;;;;;;19.20;11.10;;;2.00;99.90;;;;;;5089778;28;20402;-60
2022/01/19 01:44:25;;;;;;;21.83;10.80;;;2.00;99.90;;;;;;5090486;28;20393;-59
2022/01/19 01:46:56;;;;;;;25.02;11.60;;;1.90;99.90;;;;;;5090833;28;20923;-60
2022/01/19 01:49:29;;;;;;;20.23;10.80;;;3.20;99.90;;;;;;5090436;28;20386;-60
2022/01/19 01:54:41;;;;;;;21.00;10.48;;;2.00;99.90;;;;;;5089811;28;20365;-59
2022/01/19 01:57:08;;;;;;;22.30;11.77;;;1.80;99.90;;;;;;5090181;28;20378;-60
2022/01/19 01:59:35;;;;;;;23.10;12.07;;;-0.10;99.90;;;;;;5090965;28;20426;-59
2022/01/19 02:02:00;;;;;;;21.75;11.63;;;1.80;99.90;;;;;;5090998;28;20863;-59
2022/01/19 02:04:26;;;;;;;21.43;11.50;;;1.90;99.90;;;;;;5090010;28;20479;-59
2022/01/19 02:07:15;;;;;;;23.02;12.48;;;2.00;99.90;;;;;;5090720;28;20382;-59
2022/01/19 02:09:40;;;;;;;23.10;12.10;;;2.10;99.90;;;;;;5085754;28;20424;-60
2022/01/19 02:23:56;;;;;;;21.98;12.00;;;2.10;99.90;;;;;;5069184;28;20457;-60
2022/01/19 02:26:05;;;;;;;25.75;12.15;;;2.60;99.90;;;;;;5069422;28;20900;-60
2022/01/19 02:31:53;;;;;;;24.05;12.88;;;3.20;99.90;;;;;;5069383;28;20425;-60
2022/01/19 02:42:38;;;;;;;24.65;12.27;;;3.20;99.90;;;;;;5069648;28;20450;-60
2022/01/19 02:49:57;;;;;;;22.33;12.23;;;2.10;99.90;;;;;;5069825;28;20878;-60
2022/01/19 02:52:24;;;;;;;24.17;11.60;;;3.20;99.90;;;;;;5067858;28;20426;-60
2022/01/19 02:54:51;;;;;;;28.83;12.68;;;2.00;99.90;;;;;;5069193;28;20391;-60
2022/01/19 02:57:20;;;;;;;26.48;12.90;;;2.10;99.90;;;;;;5068948;28;20380;-60
2022/01/19 03:10:35;;;;;;;25.25;13.35;;;1.90;99.90;;;;;;5069614;28;20421;-60
2022/01/19 03:13:01;;;;;;;29.50;14.88;;;1.70;99.90;;;;;;5069173;28;20388;-60
2022/01/19 03:15:27;;;;;;;27.33;13.27;;;1.60;99.90;;;;;;5068150;28;20384;-61
2022/01/19 03:17:58;;;;;;;26.90;14.00;;;1.50;99.90;;;;;;5069577;28;20463;-59
2022/01/19 03:20:25;;;;;;;22.90;12.30;;;1.60;99.90;;;;;;5068900;28;20400;-60
2022/01/19 03:23:02;;;;;;;29.07;14.10;;;1.60;99.90;;;;;;5069212;28;20399;-60
2022/01/19 03:25:27;;;;;;;26.75;13.00;;;1.60;99.90;;;;;;5068343;28;20388;-59
2022/01/19 03:27:53;;;;;;;29.67;13.23;;;1.60;99.90;;;;;;5069419;28;20440;-59
2022/01/19 03:30:23;;;;;;;24.58;13.15;;;2.20;99.90;;;;;;5068956;28;20386;-60
2022/01/19 03:32:49;;;;;;;24.25;12.90;;;1.60;99.90;;;;;;5075052;28;20749;-59
2022/01/19 03:35:15;;;;;;;27.50;13.05;;;1.40;99.90;;;;;;5088815;28;20401;-60
2022/01/19 03:37:41;;;;;;;23.65;12.60;;;1.30;99.90;;;;;;5089469;28;20384;-59
2022/01/19 03:40:08;;;;;;;28.05;13.68;;;1.40;99.90;;;;;;5089078;28;20370;-60
2022/01/19 03:42:35;;;;;;;26.58;14.13;;;1.30;99.90;;;;;;5089604;28;20642;-60
2022/01/19 03:45:01;;;;;;;25.67;14.13;;;1.30;99.90;;;;;;5089170;28;20382;-60
2022/01/19 03:47:27;;;;;;;28.23;14.50;;;1.90;99.90;;;;;;5088751;28;20984;-60
2022/01/19 03:49:53;;;;;;;28.20;14.00;;;1.30;99.90;;;;;;5089484;28;20731;-60
2022/01/19 03:52:19;;;;;;;26.73;14.20;;;2.50;99.90;;;;;;5088547;28;20427;-60
2022/01/19 03:54:45;;;;;;;24.92;13.40;;;3.30;99.90;;;;;;5089120;28;20383;-60
2022/01/19 03:57:12;;;;;;;26.00;13.50;;;2.40;99.90;;;;;;5088666;28;20382;-60
2022/01/19 03:59:39;;;;;;;27.77;13.25;;;2.80;99.90;;;;;;5083063;28;20408;-59
2022/01/19 04:02:05;;;;;;;27.80;14.00;;;1.50;99.90;;;;;;5079550;28;20401;-60
2022/01/19 04:07:02;;;;;;;29.33;14.43;;;1.40;99.90;;;;;;5091424;28;20382;-59
2022/01/19 04:09:29;;;;;;;25.90;13.35;;;2.70;99.90;;;;;;5092232;28;20409;-60
2022/01/19 04:11:55;;;;;;;26.23;13.80;;;1.40;99.90;;;;;;5093187;28;20397;-59
2022/01/19 04:14:21;;;;;;;28.10;13.70;;;1.30;99.90;;;;;;5091952;28;20376;-60
2022/01/19 04:16:48;;;;;;;24.80;13.38;;;1.30;99.90;;;;;;5092775;28;20412;-59
2022/01/19 04:21:39;;;;;;;25.83;13.43;;;2.80;99.90;;;;;;5092821;28;20890;-60
2022/01/19 04:24:05;;;;;;;25.20;12.93;;;1.70;99.90;;;;;;5091224;28;20397;-62
2022/01/19 04:26:32;;;;;;;25.85;13.20;;;1.30;99.90;;;;;;5091977;28;20409;-60
2022/01/19 04:28:58;;;;;;;25.92;13.05;;;1.20;99.90;;;;;;5092349;28;20461;-58
2022/01/19 04:31:24;;;;;;;23.48;12.48;;;1.30;99.90;;;;;;5088998;28;20459;-59
2022/01/19 04:33:49;;;;;;;28.95;13.70;;;1.20;99.90;;;;;;5083213;28;20379;-59
2022/01/19 04:36:27;;;;;;;22.17;12.52;;;1.30;99.90;;;;;;5104155;28;20718;-59
2022/01/19 05:03:31;;;;;;;30.83;13.80;;;0.90;99.90;;;;;;5070869;28;20398;-59
2022/01/19 05:06:05;;;;;;;26.38;13.20;;;0.90;99.90;;;;;;5071861;28;20379;-60
2022/01/19 05:08:57;;;;;;;30.58;13.40;;;0.90;99.90;;;;;;5071785;28;20371;-59
2022/01/19 05:14:04;;;;;;;28.50;14.33;;;0.90;99.90;;;;;;5071542;28;20455;-59
2022/01/19 05:16:29;;;;;;;29.10;14.52;;;0.90;99.90;;;;;;5070326;28;20415;-59
2022/01/19 05:18:56;;;;;;;29.90;14.67;;;0.90;99.90;;;;;;5071559;28;20384;-59
2022/01/19 05:21:21;;;;;;;26.53;13.80;;;1.20;99.90;;;;;;5070721;28;20845;-59
2022/01/19 05:23:47;;;;;;;27.67;14.93;;;2.90;99.90;;;;;;5071358;28;20445;-59
2022/01/19 05:26:13;;;;;;;33.10;14.63;;;0.90;99.90;;;;;;5074024;28;20435;-59
2022/01/19 05:28:39;;;;;;;27.77;14.60;;;0.80;99.90;;;;;;5086896;28;20410;-59
2022/01/19 05:31:05;;;;;;;26.55;14.25;;;0.80;99.90;;;;;;5073105;28;20399;-60
2022/01/19 05:33:31;;;;;;;29.27;14.40;;;0.90;99.90;;;;;;5084711;28;20392;-59
2022/01/19 05:35:56;;;;;;;30.27;14.48;;;0.90;99.90;;;;;;5086059;28;20851;-59
2022/01/19 05:38:22;;;;;;;24.30;13.67;;;0.90;99.90;;;;;;5092779;28;20867;-59
2022/01/19 05:40:48;;;;;;;27.03;15.03;;;0.90;99.90;;;;;;5103804;28;20857;-59
2022/01/19 05:43:14;;;;;;;28.70;14.90;;;1.50;99.90;;;;;;5094658;28;20486;-59
2022/01/19 05:45:39;;;;;;;30.40;14.35;;;1.00;99.90;;;;;;5107631;28;20498;-59
2022/01/19 05:48:07;;;;;;;27.77;14.40;;;1.10;99.90;;;;;;5097244;28;20456;-59
2022/01/19 05:50:33;;;;;;;28.65;14.10;;;1.00;99.90;;;;;;5091841;28;20401;-59
2022/01/19 05:52:59;;;;;;;27.98;14.35;;;1.00;99.90;;;;;;5092490;28;20476;-59
2022/01/19 05:55:25;;;;;;;27.52;14.20;;;1.00;99.90;;;;;;5101016;28;20619;-59
2022/01/19 05:57:50;;;;;;;27.23;13.98;;;1.00;99.90;;;;;;5084110;28;20380;-59
2022/01/19 06:00:16;;;;;;;28.67;13.37;;;1.00;99.90;;;;;;5080821;28;20725;-59
2022/01/19 06:02:42;;;;;;;27.60;13.63;;;1.00;99.90;;;;;;5083238;28;20879;-59
2022/01/19 06:05:08;;;;;;;31.30;14.25;;;1.00;99.90;;;;;;5080966;28;20388;-60
2022/01/19 06:07:42;;;;;;;29.63;15.20;;;0.90;99.90;;;;;;5090092;28;20432;-59
2022/01/19 06:10:11;;;;;;;27.73;16.00;;;1.00;99.90;;;;;;5103301;28;20420;-60
2022/01/19 06:12:38;;;;;;;28.05;15.80;;;0.30;99.90;;;;;;5093103;28;20472;-59
2022/01/19 06:15:05;;;;;;;35.28;15.07;;;1.00;99.90;;;;;;5098300;28;20480;-59
2022/01/19 06:17:30;;;;;;;26.55;14.25;;;1.00;99.90;;;;;;5106631;28;20445;-59
2022/01/19 06:19:56;;;;;;;27.70;15.05;;;0.90;99.90;;;;;;5077297;28;20388;-59
2022/01/19 06:22:22;;;;;;;32.60;14.97;;;1.40;99.90;;;;;;5102731;28;20430;-59
2022/01/19 06:24:48;;;;;;;30.30;15.07;;;2.40;99.90;;;;;;5100957;28;20387;-59
2022/01/19 06:27:16;;;;;;;25.93;13.83;;;2.00;99.90;;;;;;5088195;28;20407;-59
2022/01/19 06:29:42;;;;;;;30.50;15.93;;;1.40;99.90;;;;;;5083587;28;20392;-59
2022/01/19 06:32:08;;;;;;;29.13;15.43;;;2.80;99.90;;;;;;5105143;28;20467;-60
2022/01/19 06:34:33;;;;;;;29.20;15.40;;;0.90;99.90;;;;;;5080891;28;20895;-59
2022/01/19 06:36:59;;;;;;;32.40;16.02;;;0.90;99.90;;;;;;5089196;28;20385;-59
2022/01/19 06:39:25;;;;;;;29.90;14.87;;;0.90;99.90;;;;;;5078437;28;20474;-59
2022/01/19 06:41:50;;;;;;;31.20;15.65;;;1.10;99.90;;;;;;5084376;28;20879;-59
2022/01/19 06:44:16;;;;;;;28.55;14.93;;;0.90;99.90;;;;;;5077322;28;20477;-59
2022/01/19 06:46:43;;;;;;;27.73;14.60;;;0.70;99.90;;;;;;5077345;28;20889;-59
2022/01/19 06:49:09;;;;;;;28.08;15.15;;;0.80;99.90;;;;;;5085550;28;20402;-60
2022/01/19 06:51:35;;;;;;;31.92;14.43;;;0.80;99.90;;;;;;5080989;28;20385;-59
2022/01/19 06:54:01;;;;;;;30.17;14.40;;;0.80;99.90;;;;;;5082438;28;20465;-59
2022/01/19 06:56:26;;;;;;;33.53;15.20;;;0.70;99.90;;;;;;5077285;28;20507;-59
2022/01/19 06:58:52;;;;;;;28.63;14.18;;;0.80;99.90;;;;;;5103821;28;20522;-58
2022/01/19 07:01:17;;;;;;;31.17;14.33;;;2.60;99.90;;;;;;5087834;28;20374;-59
2022/01/19 07:03:43;;;;;;;26.27;13.97;;;0.70;99.90;;;;;;5086406;28;20422;-59
2022/01/19 07:06:11;;;;;;;28.80;14.93;;;0.70;99.90;;;;;;5084616;28;20408;-60
2022/01/19 07:08:38;;;;;;;30.63;14.18;;;0.80;99.90;;;;;;5089548;28;20684;-59
2022/01/19 07:11:04;;;;;;;27.27;14.90;;;0.80;99.90;;;;;;5088182;28;20899;-60
2022/01/19 07:13:29;;;;;;;26.83;13.60;;;0.80;99.90;;;;;;5088519;28;20524;-59
2022/01/19 07:15:55;;;;;;;30.20;14.30;;;0.80;99.90;;;;;;5088984;28;20403;-59
2022/01/19 07:18:21;;;;;;;29.50;14.57;;;1.50;99.90;;;;;;5088025;28;20581;-59
2022/01/19 07:20:47;;;;;;;30.73;14.02;;;2.10;99.90;;;;;;5089168;28;20388;-59
2022/01/19 07:23:12;;;;;;;24.95;12.93;;;0.80;99.90;;;;;;5079356;28;20419;-59
2022/01/19 07:25:38;;;;;;;27.83;13.30;;;2.10;99.90;;;;;;5078251;28;20395;-59
2022/01/19 07:28:08;;;;;;;28.52;14.00;;;1.30;99.90;;;;;;5084639;28;20362;-59
2022/01/19 07:30:34;;;;;;;31.83;14.63;;;1.00;99.90;;;;;;5088031;28;20398;-59
2022/01/19 07:33:00;;;;;;;27.50;14.20;;;0.90;99.90;;;;;;5087840;28;20497;-59
2022/01/19 07:35:26;;;;;;;27.23;13.45;;;1.60;99.90;;;;;;5088506;28;20413;-59
2022/01/19 07:37:52;;;;;;;28.08;13.40;;;1.10;99.90;;;;;;5080980;28;20459;-59
2022/01/19 07:40:18;;;;;;;26.98;14.07;;;2.00;99.90;;;;;;5088541;28;20402;-59
2022/01/19 07:42:43;;;;;;;23.52;12.65;;;2.70;99.90;;;;;;5103386;28;20410;-59
2022/01/19 07:45:09;;;;;;;26.45;12.73;;;2.30;99.90;;;;;;5089958;28;20732;-60
2022/01/19 07:47:35;;;;;;;23.30;12.25;;;1.10;99.90;;;;;;5086670;28;20454;-59
2022/01/19 07:50:01;;;;;;;24.27;13.67;;;2.70;99.90;;;;;;5093005;28;20390;-59
2022/01/19 07:52:27;;;;;;;28.50;13.70;;;1.30;99.90;;;;;;5091644;28;20386;-59
2022/01/19 07:54:53;;;;;;;29.10;14.10;;;1.30;99.90;;;;;;5093098;28;20382;-59
2022/01/19 07:57:19;;;;;;;28.85;13.13;;;1.40;99.90;;;;;;5092426;28;20847;-59
2022/01/19 07:59:44;;;;;;;27.35;13.73;;;1.40;99.90;;;;;;5093159;28;20384;-59
2022/01/19 08:02:13;;;;;;;27.80;14.30;;;1.50;99.90;;;;;;5092528;28;20406;-60
2022/01/19 08:04:40;;;;;;;26.45;14.88;;;1.60;99.90;;;;;;5089072;28;20455;-59
2022/01/19 08:07:06;;;;;;;28.45;14.43;;;1.70;99.90;;;;;;5092089;28;20378;-59
2022/01/19 08:09:31;;;;;;;27.60;14.02;;;1.70;99.90;;;;;;5093795;28;20396;-59
2022/01/19 08:11:57;;;;;;;27.35;14.05;;;1.70;99.90;;;;;;5093875;28;20406;-58
2022/01/19 08:14:24;;;;;;;28.92;14.35;;;3.10;99.90;;;;;;5089625;28;20904;-59
2022/01/19 08:16:54;;;;;;;27.80;14.52;;;1.90;99.90;;;;;;5083577;28;20434;-60
2022/01/19 08:19:20;;;;;;;26.38;13.70;;;2.50;99.90;;;;;;5084839;28;20402;-59
2022/01/19 08:21:46;;;;;;;28.63;14.02;;;2.00;99.90;;;;;;5092380;28;20460;-59
2022/01/19 08:24:12;;;;;;;26.58;14.15;;;1.90;99.90;;;;;;5092117;28;20378;-60
2022/01/19 08:26:38;;;;;;;27.87;14.40;;;1.90;99.90;;;;;;5092612;28;20851;-59
2022/01/19 08:29:05;;;;;;;24.73;13.25;;;2.10;99.90;;;;;;5092560;28;20424;-59
2022/01/19 08:31:31;;;;;;;25.13;14.50;;;2.30;99.90;;;;;;5092202;28;20427;-59
2022/01/19 08:33:57;;;;;;;27.20;13.57;;;4.20;99.90;;;;;;5091214;28;20736;-59
2022/01/19 08:36:23;;;;;;;27.00;12.50;;;2.70;99.90;;;;;;5091559;28;20376;-60
2022/01/19 08:38:49;;;;;;;25.33;12.90;;;4.60;99.90;;;;;;5091405;28;20386;-60
2022/01/19 08:41:16;;;;;;;20.73;11.45;;;5.40;99.90;;;;;;5093127;28;20503;-60
2022/01/19 08:43:41;;;;;;;21.10;11.20;;;5.50;99.90;;;;;;5092219;28;20455;-61
2022/01/19 08:46:07;;;;;;;19.30;11.30;;;6.90;99.90;;;;;;5092440;28;20398;-60
2022/01/19 08:48:33;;;;;;;19.58;11.63;;;8.10;99.90;;;;;;5091384;28;20382;-60
2022/01/19 08:50:59;;;;;;;18.55;11.20;;;9.20;99.90;;;;;;5092518;28;20777;-61
2022/01/19 08:53:24;;;;;;;22.57;13.53;;;10.40;99.90;;;;;;5091108;28;20859;-61
2022/01/19 08:55:50;;;;;;;19.83;13.50;;;10.80;99.90;;;;;;5092245;28;20440;-61
2022/01/19 08:58:16;;;;;;;21.13;12.25;;;11.10;99.60;;;;;;5091218;28;20378;-61
2022/01/19 09:00:44;;;;;;;20.23;12.90;;;11.30;99.70;;;;;;5092361;28;20378;-61
2022/01/19 09:03:11;;;;;;;20.73;18.52;;;11.40;99.80;;;;;;5090259;28;20903;-62
2022/01/19 09:05:37;;;;;;;19.85;13.82;;;11.80;97.70;;;;;;5091658;28;20408;-61
2022/01/19 09:08:03;;;;;;;19.97;12.90;;;12.50;95.70;;;;;;5091761;28;20374;-61
2022/01/19 09:10:29;;;;;;;21.02;13.05;;;11.40;95.80;;;;;;5090107;28;20635;-61
2022/01/19 09:12:55;;;;;;;19.33;11.98;;;11.00;97.20;;;;;;5091801;28;20398;-62
2022/01/19 09:15:20;;;;;;;18.63;12.70;;;11.20;97.10;;;;;;5089861;28;20402;-61
2022/01/19 09:17:46;;;;;;;22.00;12.90;;;11.90;96.50;;;;;;5091968;28;20378;-62
2022/01/19 09:20:14;;;;;;;28.10;25.38;;;12.60;95.10;;;;;;5091400;28;20379;-62
2022/01/19 09:22:40;;;;;;;21.00;12.80;;;12.50;93.80;;;;;;5090112;28;20406;-62
2022/01/19 09:25:08;;;;;;;20.00;12.73;;;11.90;94.00;;;;;;5091704;28;20381;-62
2022/01/19 09:27:34;;;;;;;22.25;12.93;;;10.70;95.30;;;;;;5090978;28;20759;-62
2022/01/19 09:29:59;;;;;;;22.58;13.07;;;10.60;96.50;;;;;;5091781;28;20401;-62
2022/01/19 09:32:26;;;;;;;20.10;12.40;;;11.10;97.10;;;;;;5090226;28;20465;-62
2022/01/19 09:34:56;;;;;;;22.95;12.00;;;11.70;95.60;;;;;;5089941;28;20401;-62
2022/01/19 09:37:23;;;;;;;21.73;12.80;;;11.90;95.00;;;;;;5089642;28;20776;-62
2022/01/19 09:39:51;;;;;;;21.50;13.20;;;12.30;94.80;;;;;;5091406;28;20431;-62
2022/01/19 09:42:17;;;;;;;21.73;13.90;;;12.60;93.60;;;;;;5090561;28;20485;-62
2022/01/19 09:44:42;;;;;;;21.83;14.65;;;12.60;93.80;;;;;;5091525;28;20552;-63
2022/01/19 09:47:08;;;;;;;19.33;11.93;;;12.60;92.90;;;;;;5091058;28;20383;-62
2022/01/19 09:49:34;;;;;;;20.77;12.60;;;12.30;93.10;;;;;;5090278;28;20382;-62
2022/01/19 09:52:00;;;;;;;17.10;11.20;;;11.40;94.30;;;;;;5091347;28;20493;-63
2022/01/19 09:54:29;;;;;;;18.10;11.68;;;10.50;95.70;;;;;;5090554;28;20413;-63
2022/01/19 09:56:56;;;;;;;19.75;11.65;;;10.20;95.90;;;;;;5091008;28;20867;-64
2022/01/19 09:59:22;;;;;;;21.30;11.70;;;9.50;97.90;;;;;;5090605;28;20374;-63
2022/01/19 10:02:06;;;;;;;20.90;11.95;;;10.00;97.50;;;;;;5091021;28;20882;-63
2022/01/19 10:04:45;;;;;;;20.88;12.27;;;9.30;97.30;;;;;;5089887;28;20392;-63
2022/01/19 10:07:19;;;;;;;19.35;10.70;;;10.40;97.10;;;;;;5090712;28;20469;-63
2022/01/19 10:10:05;;;;;;;22.02;11.35;;;10.60;97.20;;;;;;5090449;28;20759;-63
2022/01/19 10:18:24;;;;;;;19.45;11.15;;;10.30;97.00;;;;;;5090113;28;20381;-63
2022/01/19 10:21:16;;;;;;;21.33;11.23;;;10.20;97.50;;;;;;5090799;28;20385;-64
2022/01/19 10:23:48;;;;;;;23.17;11.10;;;10.30;97.70;;;;;;5090493;28;20481;-63
2022/01/19 10:26:22;;;;;;;19.77;11.37;;;10.10;97.50;;;;;;5088657;28;20785;-63
2022/01/19 10:29:07;;;;;;;19.35;10.25;;;10.20;97.00;;;;;;5090555;28;20844;-63
2022/01/19 10:31:36;;;;;;;18.63;10.35;;;10.10;97.00;;;;;;5088978;28;20378;-63
2022/01/19 10:34:16;;;;;;;20.00;12.82;;;10.50;96.70;;;;;;5090487;28;20831;-64
2022/01/19 10:36:49;;;;;;;21.70;14.27;;;10.80;95.90;;;;;;5090850;28;20469;-64
2022/01/19 10:39:18;;;;;;;19.15;10.82;;;10.90;96.30;;;;;;5089645;28;20450;-63
2022/01/19 10:41:56;;;;;;;15.77;9.13;;;10.90;95.40;;;;;;5090672;28;20411;-63
2022/01/19 10:44:55;;;;;;;18.10;9.88;;;10.50;95.20;;;;;;5089260;28;20386;-63
2022/01/19 10:47:45;;;;;;;19.35;12.57;;;10.80;95.40;;;;;;5089207;28;20439;-63
2022/01/19 10:50:13;;;;;;;17.00;9.55;;;11.50;95.40;;;;;;5089897;28;20396;-61
2022/01/19 10:52:40;;;;;;;19.08;9.63;;;12.20;94.50;;;;;;5089822;28;20382;-61
2022/01/19 10:55:25;;;;;;;18.25;10.35;;;12.60;93.60;;;;;;5089795;28;20602;-62
2022/01/19 10:57:52;;;;;;;17.90;9.55;;;11.90;94.70;;;;;;5089153;28;20401;-61
2022/01/19 11:00:26;;;;;;;18.60;10.18;;;12.10;93.40;;;;;;5087552;28;20404;-61
2022/01/19 11:03:12;;;;;;;17.80;10.27;;;12.00;93.80;;;;;;5089466;28;20581;-62
2022/01/19 11:05:49;;;;;;;15.25;10.30;;;12.50;93.40;;;;;;5089322;28;20458;-62
2022/01/19 11:08:17;;;;;;;19.42;10.20;;;12.70;93.20;;;;;;5088474;28;20385;-61
2022/01/19 11:10:48;;;;;;;17.30;9.98;;;12.80;93.10;;;;;;5089579;28;20416;-61
2022/01/19 11:13:27;;;;;;;17.25;9.35;;;13.00;93.00;;;;;;5088965;28;20390;-62
2022/01/19 11:16:01;;;;;;;17.88;8.68;;;13.30;92.10;;;;;;5088505;28;20450;-61
2022/01/19 11:18:32;;;;;;;16.85;9.40;;;13.20;91.80;;;;;;5088307;28;20501;-62
2022/01/19 11:21:05;;;;;;;17.17;10.07;;;12.90;91.60;;;;;;5089322;28;20413;-61
2022/01/19 11:23:54;;;;;;;18.35;10.05;;;12.60;93.10;;;;;;5088317;28;20508;-62
2022/01/19 11:26:29;;;;;;;19.35;10.45;;;12.00;91.90;;;;;;5088594;28;20836;-63
2022/01/19 11:29:10;;;;;;;20.23;11.70;;;11.40;92.90;;;;;;5089404;28;20934;-62
2022/01/19 11:31:38;;;;;;;22.15;10.82;;;11.50;93.60;;;;;;5088596;28;20822;-61
2022/01/19 11:34:04;;;;;;;22.15;12.05;;;11.70;93.50;;;;;;5089147;28;20370;-61
2022/01/19 11:36:34;;;;;;;20.52;10.35;;;11.90;94.10;;;;;;5088926;28;20408;-61
2022/01/19 11:39:11;;;;;;;18.15;10.27;;;11.40;94.20;;;;;;5089348;28;20461;-63
2022/01/19 11:42:05;;;;;;;19.43;10.07;;;10.60;94.50;;;;;;5088309;28;20385;-63
2022/01/19 11:44:33;;;;;;;18.67;9.70;;;9.90;96.10;;;;;;5086194;28;20467;-63
2022/01/19 11:47:17;;;;;;;15.10;8.95;;;9.50;97.50;;;;;;5089298;28;20398;-63
2022/01/19 11:50:00;;;;;;;20.02;10.32;;;9.20;98.60;;;;;;5087924;28;20405;-63
2022/01/19 11:52:47;;;;;;;17.25;9.50;;;9.10;98.40;;;;;;5088213;28;20386;-64
2022/01/19 11:55:26;;;;;;;18.42;9.57;;;9.10;98.10;;;;;;5088554;28;20473;-61
2022/01/19 11:58:13;;;;;;;16.00;9.70;;;8.70;99.40;;;;;;5089000;28;20459;-62
2022/01/19 12:00:40;;;;;;;18.88;9.60;;;8.90;99.90;;;;;;5088405;28;20424;-61
2022/01/19 12:03:29;;;;;;;15.82;9.10;;;8.70;99.40;;;;;;5088786;28;20413;-61
2022/01/19 12:05:57;;;;;;;18.65;8.73;;;8.60;99.90;;;;;;5089357;28;20464;-61
2022/01/19 12:08:35;;;;;;;17.50;8.98;;;8.50;99.90;;;;;;5087993;28;20526;-61
2022/01/19 12:11:13;;;;;;;15.52;8.57;;;8.50;99.90;;;;;;5088702;28;21001;-60
2022/01/19 12:16:26;;;;;;;15.68;8.30;;;8.40;99.90;;;;;;5088324;28;20414;-60
2022/01/19 12:18:54;;;;;;;17.25;9.13;;;8.40;99.90;;;;;;5087253;28;20403;-61
2022/01/19 12:21:31;;;;;;;18.30;10.30;;;8.50;99.90;;;;;;5087839;28;20859;-60
2022/01/19 12:24:38;;;;;;;18.38;10.30;;;8.50;99.90;;;;;;5088511;28;20409;-60
2022/01/19 12:27:26;;;;;;;13.93;7.95;;;8.50;99.90;;;;;;5084758;28;20394;-60
2022/01/19 12:30:02;;;;;;;14.80;8.07;;;8.30;99.90;;;;;;5092512;28;20527;-60
2022/01/19 12:32:27;;;;;;;20.02;9.80;;;8.70;99.90;;;;;;5091585;28;20405;-60
2022/01/19 12:35:07;;;;;;;17.57;8.70;;;8.70;99.90;;;;;;5092104;28;20379;-60
2022/01/19 12:37:37;;;;;;;15.98;9.25;;;8.80;99.90;;;;;;5091809;28;20397;-63
2022/01/19 12:40:18;;;;;;;15.30;7.65;;;9.00;99.90;;;;;;5092357;28;20378;-63
2022/01/19 12:42:50;;;;;;;14.93;7.77;;;9.00;99.90;;;;;;5092074;28;20443;-60
2022/01/19 12:45:18;;;;;;;14.45;7.50;;;8.70;99.90;;;;;;5091477;28;20422;-61
2022/01/19 12:47:50;;;;;;;15.73;8.27;;;8.10;99.90;;;;;;5091793;28;20438;-60
2022/01/19 12:50:15;;;;;;;13.45;7.03;;;8.00;99.90;;;;;;5091753;28;20382;-59
2022/01/19 12:52:54;;;;;;;14.10;7.50;;;7.90;99.90;;;;;;5091831;28;20739;-60
2022/01/19 12:55:21;;;;;;;15.30;8.00;;;8.40;99.90;;;;;;5091117;28;20386;-60
2022/01/19 12:57:48;;;;;;;13.32;6.90;;;8.30;99.90;;;;;;5091886;28;20394;-60
2022/01/19 13:00:19;;;;;;;14.18;6.75;;;8.10;99.90;;;;;;5090022;28;20591;-60
2022/01/19 13:02:45;;;;;;;12.70;6.40;;;7.60;99.90;;;;;;5092088;28;20402;-59
2022/01/19 13:05:15;;;;;;;12.15;5.93;;;7.50;99.90;;;;;;5091957;28;20490;-60
2022/01/19 13:07:43;;;;;;;10.65;5.05;;;7.20;99.90;;;;;;5091598;28;20942;-63
2022/01/19 13:10:25;;;;;;;13.93;6.73;;;6.90;99.90;;;;;;5092525;28;20760;-62
2022/01/19 13:13:10;;;;;;;15.82;6.75;;;6.80;99.90;;;;;;5091395;28;20385;-62
2022/01/19 13:15:59;;;;;;;15.15;5.80;;;6.90;99.90;;;;;;5070906;28;20438;-62
2022/01/19 13:18:35;;;;;;;13.30;6.70;;;7.00;99.90;;;;;;5071299;28;20413;-62
2022/01/19 13:21:08;;;;;;;10.40;5.38;;;7.10;99.90;;;;;;5071318;28;20745;-62
2022/01/19 13:23:37;;;;;;;11.63;5.03;;;7.20;99.90;;;;;;5070527;28;20770;-62
2022/01/19 13:26:10;;;;;;;11.85;5.32;;;7.30;99.90;;;;;;5071720;28;20794;-62
2022/01/19 13:28:36;;;;;;;10.30;5.00;;;7.30;99.90;;;;;;5070442;28;20371;-59
2022/01/19 13:31:12;;;;;;;10.55;5.03;;;7.50;99.90;;;;;;5070805;28;20379;-60
2022/01/19 13:33:38;;;;;;;10.05;4.32;;;7.40;99.90;;;;;;5070268;28;20931;-62
2022/01/19 13:36:05;;;;;;;10.82;4.50;;;7.40;99.90;;;;;;5103708;28;20390;-62
2022/01/19 13:38:31;;;;;;;11.02;5.30;;;7.50;99.90;;;;;;5069696;28;20437;-62
2022/01/19 13:41:05;;;;;;;10.10;5.10;;;7.50;99.90;;;;;;5071132;28;20783;-62
2022/01/19 13:43:33;;;;;;;9.48;4.75;;;7.40;99.90;;;;;;5069521;28;20408;-62
2022/01/19 13:46:12;;;;;;;11.55;4.25;;;7.60;99.90;;;;;;5071017;28;20722;-62
2022/01/19 13:48:38;;;;;;;10.35;4.70;;;7.40;99.90;;;;;;5070084;28;20804;-62
2022/01/19 13:51:10;;;;;;;12.27;5.75;;;7.20;99.90;;;;;;5070409;28;20388;-60
2022/01/19 13:53:40;;;;;;;10.63;5.07;;;6.90;99.90;;;;;;5069645;28;20395;-59
2022/01/19 13:56:14;;;;;;;9.70;4.85;;;7.20;99.90;;;;;;5070766;28;20387;-62
2022/01/19 13:58:41;;;;;;;11.68;5.22;;;7.00;99.90;;;;;;5069842;28;20384;-62
2022/01/19 14:01:13;;;;;;;12.00;4.70;;;6.90;99.90;;;;;;5070480;28;20437;-62
2022/01/19 14:03:50;;;;;;;10.45;4.80;;;6.80;99.90;;;;;;5068178;28;20403;-62
2022/01/19 14:06:20;;;;;;;11.65;5.40;;;6.80;99.90;;;;;;5070230;28;20388;-62
2022/01/19 14:08:46;;;;;;;11.73;4.40;;;6.90;99.90;;;;;;5070540;28;20379;-59
2022/01/19 14:11:24;;;;;;;10.05;5.35;;;6.90;99.90;;;;;;5068776;28;20807;-59
2022/01/19 14:13:58;;;;;;;10.77;5.03;;;6.90;99.90;;;;;;5076282;28;20402;-59
2022/01/19 14:16:37;;;;;;;11.50;5.35;;;6.80;99.90;;;;;;5089287;28;20866;-59